KHWO

North Perry Airport

Hollywood, Florida, USA
METAR KHWO 151153Z 02003KT 10SM SCT019 SCT027 BKN075 26/24 A2997 RMK AO2 SLP149 70001 T02560239 10272 20250 53003
Observed Flight Rules
Nov-15 @ 11:53 UTC (49 minutes ago) Visual Flight Rules
Wind Visibility Clouds
20° at 3 knots 10 miles
  • Scattered at 1,900' AGL
  • Scattered at 2,700' AGL
  • Broken at 7,500' AGL
Temperatures Readings
Current 26°C / 79°F
Dewpoint 24°C / 75°F
Humidity 89%
Altimeter 29.97" Hg
Pressure 1014.9 hPa
Elevation 2
METAR KHWO 151153Z 02003KT 10SM SCT019 SCT027 BKN075 26/24 A2997 RMK AO2 SLP149 70001 T02560239 10272 20250 53003
Observed Flight Rules
Nov-15 @ 11:53 UTC
(49 minutes ago)
VFR
Wind Visibility
20° at 3 knots 10 miles
Clouds
  • Scattered at 1,900' AGL
  • Scattered at 2,700' AGL
  • Broken at 7,500' AGL
Temperature Dewpoint
26°C / 79°F 24°C / 75°F
Humidity Altimeter Pressure
89% 29.97" Hg 1014.9 hPa